Harmony Corners, New York
Current Conditions -  °F | °C
As of 3:51 AM on Saturday 29 Nov 2014 (Local Time) from KALB Reporting Station
Overcast Overcast  
Wind Chill: 12°   Ceiling: 11000
Heat Index: 19°   Visibility: 10mi
Dew Point: 12°   Wind: 5mph
Humidity: 74%   Direction: 190°S
Pressure: 30.27"   Gusts: NA
Location:  43.002°N, 73.8759°W
Report Text: KALB 290851Z 19004KT 10SM OVC110 M07/M11 A3027 RMK AO2 SLP254 BINOVC T10721111 50005
Loading
Personal Weather Stations






























Interactive Weather Map New forecast layout! Learn more

10-Day Weather Forecast

Advertisements
Track Severe Weather on mobile